createdAt,value
2023-06-19T00:00:48.418Z,13.09
2023-06-19T00:03:14.631Z,12.98
2023-06-19T00:05:40.819Z,12.96
2023-06-19T00:08:06.984Z,12.87
2023-06-19T00:10:33.138Z,12.84
2023-06-19T00:12:59.281Z,12.96
2023-06-19T00:15:25.443Z,12.95
2023-06-19T00:17:51.607Z,12.99
2023-06-19T00:20:17.759Z,12.82
2023-06-19T00:22:43.934Z,12.70
2023-06-19T00:25:10.079Z,12.81
2023-06-19T00:27:36.208Z,12.79
2023-06-19T00:30:02.343Z,12.85
2023-06-19T00:32:28.491Z,12.97
2023-06-19T00:34:54.674Z,12.97
2023-06-19T00:37:20.831Z,13.09
2023-06-19T00:39:46.972Z,13.24
2023-06-19T00:42:13.111Z,13.05
2023-06-19T00:44:39.266Z,13.44
2023-06-19T00:47:05.459Z,13.45
2023-06-19T00:49:31.665Z,13.41
2023-06-19T00:51:57.831Z,13.13
2023-06-19T00:54:23.976Z,13.05
2023-06-19T00:56:50.126Z,13.03
2023-06-19T00:59:16.279Z,13.08
2023-06-19T01:01:42.447Z,12.87
2023-06-19T01:04:08.801Z,12.67
2023-06-19T01:06:35.030Z,12.64
2023-06-19T01:09:01.196Z,12.79
2023-06-19T01:11:27.920Z,12.82
2023-06-19T01:13:54.284Z,12.81
2023-06-19T01:16:20.450Z,12.69
2023-06-19T01:18:46.611Z,12.67
2023-06-19T01:21:12.764Z,12.75
2023-06-19T01:23:38.932Z,12.85
2023-06-19T01:26:05.080Z,12.88
2023-06-19T01:28:31.253Z,12.99
2023-06-19T01:30:57.378Z,12.93
2023-06-19T01:33:23.529Z,12.99
2023-06-19T01:35:49.708Z,12.99
2023-06-19T01:38:15.872Z,13.06
2023-06-19T01:40:42.018Z,13.19
2023-06-19T01:43:08.208Z,13.22
2023-06-19T01:45:34.373Z,13.06
2023-06-19T01:48:00.570Z,13.14
2023-06-19T01:50:26.801Z,13.54
2023-06-19T01:52:52.942Z,13.69
2023-06-19T01:55:19.081Z,13.75
2023-06-19T01:57:45.237Z,13.65
2023-06-19T02:00:11.474Z,13.55
2023-06-19T02:02:37.724Z,13.46
2023-06-19T02:05:03.967Z,13.31
2023-06-19T02:07:30.128Z,13.15
2023-06-19T02:09:56.263Z,12.92
2023-06-19T02:12:22.436Z,12.97
2023-06-19T02:14:48.603Z,12.84
2023-06-19T02:17:14.755Z,12.67
2023-06-19T02:19:40.914Z,12.66
2023-06-19T02:22:07.071Z,12.54
2023-06-19T02:24:33.338Z,12.32
2023-06-19T02:26:59.515Z,12.20
2023-06-19T02:29:25.641Z,12.17
2023-06-19T02:31:51.794Z,12.17
2023-06-19T02:34:17.966Z,12.28
2023-06-19T02:36:44.141Z,12.27
2023-06-19T02:39:10.272Z,12.40
2023-06-19T02:41:36.416Z,12.43
2023-06-19T02:44:02.563Z,12.52
2023-06-19T02:46:28.932Z,12.47
2023-06-19T02:48:55.127Z,12.51
2023-06-19T02:51:21.284Z,12.44
2023-06-19T02:53:47.421Z,12.57
2023-06-19T02:56:13.581Z,12.73
2023-06-19T02:58:39.738Z,12.36
2023-06-19T03:01:05.947Z,11.15
2023-06-19T03:03:32.213Z,11.81
2023-06-19T03:05:58.496Z,12.01
2023-06-19T03:08:24.637Z,12.27
2023-06-19T03:10:50.789Z,12.27
2023-06-19T03:13:16.957Z,12.48
2023-06-19T03:15:43.120Z,12.52
2023-06-19T03:18:09.360Z,12.41
2023-06-19T03:20:35.628Z,12.52
2023-06-19T03:23:01.791Z,12.56
2023-06-19T03:25:27.974Z,12.62
2023-06-19T03:27:54.165Z,12.65
2023-06-19T03:30:20.330Z,12.48
2023-06-19T03:32:46.532Z,12.46
2023-06-19T03:35:12.718Z,12.34
2023-06-19T03:37:38.866Z,12.46
2023-06-19T03:40:05.015Z,12.45
2023-06-19T03:42:31.161Z,12.53
2023-06-19T03:44:57.307Z,12.54
2023-06-19T03:47:23.501Z,12.48
2023-06-19T03:49:49.670Z,12.55
2023-06-19T03:52:15.808Z,12.64
2023-06-19T03:54:41.955Z,12.88
2023-06-19T03:57:08.097Z,12.87
2023-06-19T03:59:34.258Z,12.97
2023-06-19T04:02:01.003Z,12.95
2023-06-19T04:04:27.314Z,12.98
2023-06-19T04:06:53.478Z,12.96
2023-06-19T04:09:19.650Z,12.92
2023-06-19T04:11:45.792Z,13.13
2023-06-19T04:14:11.946Z,13.37
2023-06-19T04:16:38.129Z,13.35
2023-06-19T04:19:04.270Z,13.51
2023-06-19T04:21:30.413Z,13.25
2023-06-19T04:23:56.589Z,13.38
2023-06-19T04:26:22.763Z,13.55
2023-06-19T04:28:48.930Z,13.50
2023-06-19T04:31:15.076Z,13.62
2023-06-19T04:33:41.250Z,13.58
2023-06-19T04:36:07.656Z,13.59
2023-06-19T04:38:33.817Z,13.80
2023-06-19T04:41:00.010Z,14.08
2023-06-19T04:43:26.213Z,14.20
2023-06-19T04:45:52.385Z,14.17
2023-06-19T04:48:18.671Z,14.12
2023-06-19T04:50:44.901Z,14.19
2023-06-19T04:53:11.051Z,14.32
2023-06-19T04:55:37.220Z,14.21
2023-06-19T04:58:03.361Z,14.57
2023-06-19T05:00:29.567Z,14.55
2023-06-19T05:02:55.775Z,14.49
2023-06-19T05:05:24.458Z,14.14
2023-06-19T05:07:50.964Z,14.31
2023-06-19T05:10:17.139Z,14.66
2023-06-19T05:12:43.321Z,14.54
2023-06-19T05:15:09.468Z,14.83
2023-06-19T05:17:35.666Z,14.75
2023-06-19T05:20:01.845Z,15.02
2023-06-19T05:22:28.102Z,14.78
2023-06-19T05:24:54.339Z,14.67
2023-06-19T05:27:20.502Z,14.83
2023-06-19T05:29:46.641Z,14.99
2023-06-19T05:32:12.792Z,14.74
2023-06-19T05:34:38.993Z,14.84
2023-06-19T05:37:05.242Z,14.96
2023-06-19T05:39:31.431Z,15.04
2023-06-19T05:41:57.630Z,15.01
2023-06-19T05:44:24.051Z,15.11
2023-06-19T05:46:50.206Z,15.02
2023-06-19T05:49:16.347Z,14.88
2023-06-19T05:51:42.484Z,15.16
2023-06-19T05:54:08.646Z,15.16
2023-06-19T05:56:34.846Z,15.06
2023-06-19T05:59:01.028Z,14.94
2023-06-19T06:01:27.220Z,14.78
2023-06-19T06:03:53.420Z,15.09
2023-06-19T06:06:19.589Z,15.24
2023-06-19T06:08:45.750Z,15.04
2023-06-19T06:11:11.936Z,15.32
2023-06-19T06:13:38.210Z,15.31
2023-06-19T06:16:04.343Z,15.81
2023-06-19T06:18:30.509Z,15.77
2023-06-19T06:20:56.698Z,15.89
2023-06-19T06:23:22.874Z,16.11
2023-06-19T06:25:49.044Z,16.25
2023-06-19T06:28:15.206Z,16.55
2023-06-19T06:30:41.376Z,16.65
2023-06-19T06:33:07.547Z,16.75
2023-06-19T06:35:33.732Z,17.00
2023-06-19T06:37:59.874Z,17.60
2023-06-19T06:40:26.264Z,17.43
2023-06-19T06:42:52.638Z,17.19
2023-06-19T06:45:18.808Z,16.90
2023-06-19T06:47:45.027Z,16.93
2023-06-19T06:50:11.216Z,16.79
2023-06-19T06:52:37.385Z,16.84
2023-06-19T06:55:03.548Z,17.00
2023-06-19T06:57:29.771Z,17.21
2023-06-19T06:59:55.923Z,17.42
2023-06-19T07:02:22.155Z,17.55
2023-06-19T07:04:48.327Z,17.47
2023-06-19T07:07:15.545Z,17.64
2023-06-19T07:09:41.720Z,17.75
2023-06-19T07:12:07.881Z,17.86
2023-06-19T07:14:34.052Z,18.03
2023-06-19T07:17:00.237Z,17.98
2023-06-19T07:19:26.546Z,18.08
2023-06-19T07:21:52.759Z,18.16
2023-06-19T07:24:18.987Z,18.40
2023-06-19T07:26:45.184Z,18.52
2023-06-19T07:29:11.376Z,18.62
2023-06-19T07:31:37.537Z,18.28
2023-06-19T07:34:03.705Z,18.60
2023-06-19T07:36:29.864Z,18.61
2023-06-19T07:38:56.034Z,18.64
2023-06-19T07:41:22.174Z,18.84
2023-06-19T07:43:48.319Z,19.06
2023-06-19T07:46:14.504Z,19.00
2023-06-19T07:48:40.659Z,19.15
2023-06-19T07:51:06.798Z,18.30
2023-06-19T07:53:32.942Z,17.62
2023-06-19T07:55:59.093Z,17.34
2023-06-19T07:58:25.246Z,16.83
2023-06-19T08:00:51.459Z,17.21
2023-06-19T08:03:17.701Z,17.27
2023-06-19T08:05:43.994Z,17.60
2023-06-19T08:08:10.157Z,17.58
2023-06-19T08:10:36.334Z,17.40
2023-06-19T08:13:02.502Z,17.90
2023-06-19T08:15:28.672Z,18.02
2023-06-19T08:17:54.933Z,17.70
2023-06-19T08:20:21.153Z,17.77
2023-06-19T08:22:47.360Z,17.96
2023-06-19T08:25:13.521Z,18.13
2023-06-19T08:27:39.685Z,17.89
2023-06-19T08:30:05.851Z,17.91
2023-06-19T08:32:32.067Z,18.47
2023-06-19T08:34:58.264Z,18.58
2023-06-19T08:37:24.430Z,18.54
2023-06-19T08:39:50.618Z,19.28
2023-06-19T08:42:16.765Z,19.44
2023-06-19T08:44:42.922Z,19.43
2023-06-19T08:47:09.089Z,19.36
2023-06-19T08:49:35.241Z,19.61
2023-06-19T08:52:01.420Z,19.67
2023-06-19T08:54:27.578Z,19.19
2023-06-19T08:56:53.802Z,18.98
2023-06-19T08:59:19.946Z,18.66
2023-06-19T09:01:46.084Z,19.34
2023-06-19T09:04:12.329Z,19.50
2023-06-19T09:06:38.682Z,19.38
2023-06-19T09:09:04.878Z,19.96
2023-06-19T09:11:31.032Z,20.09
2023-06-19T09:13:57.194Z,19.60
2023-06-19T09:16:23.559Z,19.23
2023-06-19T09:18:49.756Z,19.57
2023-06-19T09:21:15.906Z,19.32
2023-06-19T09:23:42.065Z,19.25
2023-06-19T09:26:08.225Z,19.10
2023-06-19T09:28:34.435Z,19.16
2023-06-19T09:31:00.614Z,19.60
2023-06-19T09:33:26.933Z,19.46
2023-06-19T09:35:53.128Z,19.11
2023-06-19T09:38:19.288Z,19.58
2023-06-19T09:40:45.524Z,19.93
2023-06-19T09:43:11.678Z,19.94
2023-06-19T09:45:37.807Z,20.17
2023-06-19T09:48:04.003Z,20.43
2023-06-19T09:50:30.257Z,20.36
2023-06-19T09:52:56.416Z,20.13
2023-06-19T09:55:22.549Z,19.97
2023-06-19T09:57:48.712Z,20.27
2023-06-19T10:00:14.917Z,19.90
2023-06-19T10:02:41.211Z,20.48
2023-06-19T10:05:07.445Z,20.55
2023-06-19T10:07:33.596Z,20.21
2023-06-19T10:09:59.756Z,20.40
2023-06-19T10:12:25.910Z,21.07
2023-06-19T10:14:52.104Z,20.68
2023-06-19T10:17:18.330Z,20.58
2023-06-19T10:19:44.520Z,20.69
2023-06-19T10:22:10.674Z,20.73
2023-06-19T10:24:37.119Z,20.90
2023-06-19T10:27:03.307Z,21.55
2023-06-19T10:29:29.559Z,21.28
2023-06-19T10:31:56.038Z,21.11
2023-06-19T10:34:22.204Z,21.32
2023-06-19T10:36:48.343Z,21.78
2023-06-19T10:39:14.479Z,21.52
2023-06-19T10:41:40.641Z,21.75
2023-06-19T10:44:06.816Z,21.66
2023-06-19T10:46:33.084Z,22.03
2023-06-19T10:48:59.650Z,22.22
2023-06-19T10:51:25.797Z,21.72
2023-06-19T10:53:51.952Z,21.82
2023-06-19T10:56:18.156Z,21.68
2023-06-19T10:58:44.322Z,21.94
2023-06-19T11:01:10.494Z,21.68
2023-06-19T11:03:36.748Z,21.30
2023-06-19T11:06:02.938Z,21.48
2023-06-19T11:08:29.128Z,21.00
2023-06-19T11:10:55.298Z,21.14
2023-06-19T11:13:21.457Z,20.52
2023-06-19T11:15:47.728Z,20.57
2023-06-19T11:18:13.952Z,20.87
2023-06-19T11:20:40.128Z,20.55
2023-06-19T11:23:06.259Z,20.57
2023-06-19T11:25:32.395Z,20.55
2023-06-19T11:27:58.560Z,20.66
2023-06-19T11:30:24.840Z,20.08
2023-06-19T11:32:51.323Z,20.22
2023-06-19T11:35:17.511Z,20.24
2023-06-19T11:37:43.718Z,19.94
2023-06-19T11:40:09.904Z,20.01
2023-06-19T11:42:36.079Z,19.75
2023-06-19T11:45:02.219Z,20.12
2023-06-19T11:47:28.390Z,19.79
2023-06-19T11:49:54.559Z,19.65
2023-06-19T11:52:20.728Z,19.39
2023-06-19T11:54:46.899Z,19.62
2023-06-19T11:57:13.050Z,19.96
2023-06-19T11:59:39.185Z,19.82
2023-06-19T12:02:05.454Z,19.93
2023-06-19T12:04:31.949Z,19.39
2023-06-19T12:06:58.236Z,18.91
2023-06-19T12:09:24.371Z,18.43
2023-06-19T12:11:50.531Z,18.39
2023-06-19T12:14:16.699Z,18.63
2023-06-19T12:16:42.893Z,19.06
2023-06-19T12:19:09.042Z,19.44
2023-06-19T12:21:39.485Z,19.96
2023-06-19T12:24:07.417Z,20.72
2023-06-19T12:26:33.585Z,21.02
2023-06-19T12:28:59.731Z,21.59
2023-06-19T12:31:25.932Z,22.03
2023-06-19T12:33:52.156Z,22.26
2023-06-19T12:36:18.306Z,22.40
2023-06-19T12:38:44.456Z,22.35
2023-06-19T12:41:10.632Z,22.83
2023-06-19T12:43:36.787Z,23.50
2023-06-19T12:46:02.981Z,23.82
2023-06-19T12:48:29.194Z,23.79
2023-06-19T12:50:55.353Z,23.58
2023-06-19T12:53:21.515Z,23.00
2023-06-19T12:56:00.746Z,22.81
2023-06-19T12:58:29.139Z,23.08
2023-06-19T13:00:55.292Z,22.62
2023-06-19T13:03:21.531Z,22.62
2023-06-19T13:05:47.740Z,22.81
2023-06-19T13:08:13.890Z,23.05
2023-06-19T13:10:40.019Z,22.65
2023-06-19T13:13:06.169Z,22.67
2023-06-19T13:15:32.314Z,23.58
2023-06-19T13:17:58.531Z,23.32
2023-06-19T13:20:24.980Z,22.87
2023-06-19T13:22:51.446Z,23.18
2023-06-19T13:25:17.593Z,22.84
2023-06-19T13:27:43.717Z,23.19
2023-06-19T13:30:09.871Z,23.85
2023-06-19T13:32:36.099Z,23.88
2023-06-19T13:35:02.313Z,22.46
2023-06-19T13:37:28.509Z,23.11
2023-06-19T13:39:54.647Z,22.77
2023-06-19T13:42:20.801Z,23.23
2023-06-19T13:44:48.305Z,22.97
2023-06-19T13:47:16.745Z,23.25
2023-06-19T13:49:42.938Z,23.15
2023-06-19T13:52:09.225Z,23.08
2023-06-19T13:54:35.460Z,23.06
2023-06-19T13:57:01.617Z,22.90
2023-06-19T13:59:27.773Z,23.20
2023-06-19T14:01:53.939Z,23.49
2023-06-19T14:04:20.082Z,23.83
2023-06-19T14:06:46.218Z,23.98
2023-06-19T14:09:12.368Z,23.74
2023-06-19T14:11:38.526Z,23.32
2023-06-19T14:14:04.691Z,23.22
2023-06-19T14:16:30.874Z,23.01
2023-06-19T14:18:57.126Z,22.78
2023-06-19T14:21:23.330Z,22.92
2023-06-19T14:23:49.470Z,22.17
2023-06-19T14:26:15.694Z,21.46
2023-06-19T14:28:41.864Z,21.18
2023-06-19T14:31:08.010Z,21.32
2023-06-19T14:33:34.187Z,21.27
2023-06-19T14:36:00.371Z,22.00
2023-06-19T14:38:26.502Z,22.30
2023-06-19T14:40:52.648Z,22.00
2023-06-19T14:43:18.821Z,21.83
2023-06-19T14:45:44.993Z,21.48
2023-06-19T14:48:11.261Z,21.11
2023-06-19T14:50:37.514Z,21.91
2023-06-19T14:53:03.712Z,21.79
2023-06-19T14:55:29.900Z,21.61
2023-06-19T14:57:56.057Z,21.20
2023-06-19T15:00:22.346Z,21.29
2023-06-19T15:02:48.634Z,21.15
2023-06-19T15:05:14.804Z,21.42
2023-06-19T15:07:40.978Z,21.13
2023-06-19T15:10:07.138Z,21.61
2023-06-19T15:12:33.332Z,22.12
2023-06-19T15:14:59.492Z,21.79
2023-06-19T15:17:25.670Z,21.73
2023-06-19T15:19:51.822Z,21.80
2023-06-19T15:22:17.987Z,22.08
2023-06-19T15:24:44.223Z,22.45
2023-06-19T15:27:10.641Z,22.54
2023-06-19T15:29:36.863Z,22.21
2023-06-19T15:32:03.012Z,22.65
2023-06-19T15:34:29.147Z,22.31
2023-06-19T15:36:55.311Z,22.70
2023-06-19T15:39:21.469Z,22.30
2023-06-19T15:41:47.664Z,22.63
2023-06-19T15:44:13.817Z,22.94
2023-06-19T15:46:40.037Z,23.55
2023-06-19T15:49:07.093Z,23.30
2023-06-19T15:51:34.131Z,23.64
2023-06-19T15:54:00.276Z,23.75
2023-06-19T15:56:26.441Z,23.44
2023-06-19T15:58:52.605Z,23.62
2023-06-19T16:01:18.862Z,23.83
2023-06-19T16:03:45.126Z,23.75
2023-06-19T16:06:11.412Z,23.30
2023-06-19T16:08:37.637Z,23.26
2023-06-19T16:11:03.800Z,23.56
2023-06-19T16:13:29.936Z,23.68
2023-06-19T16:15:56.123Z,23.58
2023-06-19T16:18:22.355Z,23.58
2023-06-19T16:20:48.522Z,24.20
2023-06-19T16:23:14.655Z,24.44
2023-06-19T16:25:40.794Z,23.64
2023-06-19T16:28:06.948Z,22.87
2023-06-19T16:30:33.117Z,22.68
2023-06-19T16:32:59.327Z,22.56
2023-06-19T16:35:25.634Z,22.39
2023-06-19T16:37:51.816Z,22.36
2023-06-19T16:40:17.968Z,22.19
2023-06-19T16:42:44.102Z,22.94
2023-06-19T16:45:10.244Z,23.72
2023-06-19T16:47:36.450Z,22.94
2023-06-19T16:50:02.610Z,22.27
2023-06-19T16:52:28.801Z,21.88
2023-06-19T16:54:54.991Z,21.73
2023-06-19T16:57:21.160Z,21.77
2023-06-19T16:59:47.327Z,21.44
2023-06-19T17:02:13.492Z,21.43
2023-06-19T17:04:39.660Z,21.78
2023-06-19T17:07:05.819Z,21.77
2023-06-19T17:09:31.969Z,21.71
2023-06-19T17:11:58.143Z,21.74
2023-06-19T17:14:24.283Z,21.92
2023-06-19T17:16:50.455Z,22.26
2023-06-19T17:19:16.628Z,22.70
2023-06-19T17:21:42.787Z,22.08
2023-06-19T17:24:09.001Z,21.71
2023-06-19T17:26:35.230Z,22.35
2023-06-19T17:29:01.498Z,22.46
2023-06-19T17:31:27.675Z,22.60
2023-06-19T17:33:53.827Z,22.63
2023-06-19T17:36:20.022Z,22.70
2023-06-19T17:38:46.188Z,22.54
2023-06-19T17:41:12.357Z,22.54
2023-06-19T17:43:38.535Z,22.68
2023-06-19T17:46:04.700Z,22.51
2023-06-19T17:48:30.884Z,22.54
2023-06-19T17:50:57.022Z,22.63
2023-06-19T17:53:23.178Z,22.55
2023-06-19T17:55:49.302Z,22.30
2023-06-19T17:58:15.447Z,21.94
2023-06-19T18:00:41.621Z,21.76
2023-06-19T18:03:07.811Z,21.60
2023-06-19T18:05:34.016Z,21.74
2023-06-19T18:08:00.172Z,21.79
2023-06-19T18:10:26.449Z,21.87
2023-06-19T18:12:52.825Z,21.83
2023-06-19T18:15:18.990Z,21.88
2023-06-19T18:17:45.196Z,21.77
2023-06-19T18:20:11.499Z,21.63
2023-06-19T18:22:37.667Z,21.60
2023-06-19T18:25:03.814Z,21.71
2023-06-19T18:27:29.954Z,21.52
2023-06-19T18:29:56.125Z,21.55
2023-06-19T18:32:22.317Z,21.31
2023-06-19T18:34:48.478Z,21.24
2023-06-19T18:37:14.657Z,21.22
2023-06-19T18:39:40.845Z,21.17
2023-06-19T18:42:06.982Z,20.85
2023-06-19T18:44:33.169Z,20.50
2023-06-19T18:46:59.331Z,20.54
2023-06-19T18:49:25.725Z,20.51
2023-06-19T18:51:51.916Z,20.34
2023-06-19T18:54:18.089Z,20.29
2023-06-19T18:56:44.239Z,20.23
2023-06-19T18:59:10.389Z,20.01
2023-06-19T19:01:36.569Z,20.06
2023-06-19T19:04:02.748Z,19.89
2023-06-19T19:06:28.916Z,19.70
2023-06-19T19:08:55.066Z,19.60
2023-06-19T19:11:21.216Z,19.43
2023-06-19T19:13:47.350Z,19.26
2023-06-19T19:16:13.538Z,19.13
2023-06-19T19:18:39.689Z,19.19
2023-06-19T19:21:05.858Z,19.06
2023-06-19T19:23:32.007Z,19.08
2023-06-19T19:25:58.139Z,18.97
2023-06-19T19:28:24.282Z,18.89
2023-06-19T19:30:50.438Z,18.88
2023-06-19T19:33:16.693Z,18.72
2023-06-19T19:35:42.862Z,18.40
2023-06-19T19:38:09.015Z,18.48
2023-06-19T19:40:35.160Z,18.42
2023-06-19T19:43:01.293Z,18.06
2023-06-19T19:45:27.495Z,18.11
2023-06-19T19:47:53.716Z,18.10
2023-06-19T19:50:19.915Z,17.67
2023-06-19T19:52:46.057Z,17.55
2023-06-19T19:55:12.228Z,17.53
2023-06-19T19:57:38.394Z,17.15
2023-06-19T20:00:04.560Z,17.11
2023-06-19T20:02:30.753Z,17.40
2023-06-19T20:04:56.985Z,17.31
2023-06-19T20:07:23.194Z,17.03
2023-06-19T20:09:49.365Z,17.15
2023-06-19T20:12:20.585Z,16.98
2023-06-19T20:14:48.258Z,16.58
2023-06-19T20:17:14.391Z,16.53
2023-06-19T20:19:40.526Z,16.48
2023-06-19T20:22:06.680Z,16.29
2023-06-19T20:24:33.244Z,16.32
2023-06-19T20:26:59.467Z,16.25
2023-06-19T20:29:25.633Z,16.10
2023-06-19T20:31:51.786Z,16.12
2023-06-19T20:34:17.942Z,16.29
2023-06-19T20:36:44.097Z,15.96
2023-06-19T20:39:10.228Z,16.03
2023-06-19T20:41:36.377Z,16.35
2023-06-19T20:44:02.545Z,16.28
2023-06-19T20:46:28.720Z,15.95
2023-06-19T20:48:54.873Z,15.88
2023-06-19T20:51:21.010Z,16.17
2023-06-19T20:53:47.146Z,16.06
2023-06-19T20:56:13.316Z,15.96
2023-06-19T20:58:39.465Z,16.23
2023-06-19T21:01:05.714Z,15.88
2023-06-19T21:03:31.946Z,15.84
2023-06-19T21:05:58.190Z,16.12
2023-06-19T21:08:24.365Z,16.31
2023-06-19T21:10:50.499Z,16.37
2023-06-19T21:13:22.436Z,16.48
2023-06-19T21:15:49.169Z,16.29
2023-06-19T21:18:15.306Z,16.29
2023-06-19T21:20:41.429Z,16.23
2023-06-19T21:23:07.637Z,16.26
2023-06-19T21:25:33.834Z,16.09
2023-06-19T21:27:59.998Z,16.21
2023-06-19T21:30:26.379Z,16.35
2023-06-19T21:32:52.868Z,16.11
2023-06-19T21:35:19.040Z,16.26
2023-06-19T21:37:45.211Z,16.45
2023-06-19T21:40:11.338Z,15.95
2023-06-19T21:42:37.482Z,16.08
2023-06-19T21:45:03.629Z,16.16
2023-06-19T21:47:29.811Z,16.31
2023-06-19T21:49:56.033Z,16.21
2023-06-19T21:52:22.184Z,16.02
2023-06-19T21:54:48.386Z,16.22
2023-06-19T21:57:14.549Z,16.25
2023-06-19T21:59:40.693Z,16.29
2023-06-19T22:02:06.826Z,16.02
2023-06-19T22:04:32.963Z,16.17
2023-06-19T22:06:59.108Z,15.96
2023-06-19T22:09:25.316Z,16.20
2023-06-19T22:11:51.451Z,16.40
2023-06-19T22:14:17.581Z,16.32
2023-06-19T22:16:43.740Z,16.06
2023-06-19T22:19:09.910Z,16.17
2023-06-19T22:21:36.072Z,16.25
2023-06-19T22:24:02.319Z,16.35
2023-06-19T22:26:28.501Z,16.27
2023-06-19T22:28:54.651Z,16.62
2023-06-19T22:31:20.855Z,16.54
2023-06-19T22:33:47.047Z,16.39
2023-06-19T22:36:13.237Z,16.24
2023-06-19T22:38:39.371Z,16.50
2023-06-19T22:41:05.625Z,16.69
2023-06-19T22:43:31.804Z,16.52
2023-06-19T22:45:58.005Z,16.40
2023-06-19T22:48:24.174Z,16.37
2023-06-19T22:50:50.322Z,16.34
2023-06-19T22:53:16.489Z,16.58
2023-06-19T22:55:42.636Z,16.65
2023-06-19T22:58:08.786Z,16.69
2023-06-19T23:00:34.968Z,16.61
2023-06-19T23:03:01.277Z,16.33
2023-06-19T23:05:27.638Z,16.54
2023-06-19T23:07:53.922Z,16.65
2023-06-19T23:10:20.071Z,16.72
2023-06-19T23:12:46.224Z,16.60
2023-06-19T23:15:12.373Z,16.59
2023-06-19T23:17:38.551Z,16.67
2023-06-19T23:20:04.744Z,16.68
2023-06-19T23:22:30.889Z,16.31
2023-06-19T23:24:57.024Z,16.49
2023-06-19T23:27:23.193Z,16.59
2023-06-19T23:29:49.430Z,16.75
2023-06-19T23:32:15.573Z,16.78
2023-06-19T23:34:41.731Z,16.67
2023-06-19T23:37:07.927Z,16.94
2023-06-19T23:39:34.100Z,16.77
2023-06-19T23:42:00.280Z,16.63
2023-06-19T23:44:26.441Z,16.45
2023-06-19T23:46:52.656Z,16.43
2023-06-19T23:49:18.852Z,16.61
2023-06-19T23:51:44.991Z,16.49
2023-06-19T23:54:11.139Z,16.50
2023-06-19T23:56:37.297Z,16.54
2023-06-19T23:59:03.466Z,16.23
